DIAP/ABJ METAR and TAF weather

Enter ICAO airport designator
Station Type Date Time Source
DIAP METAR 2019/12/13 22:00 UTC NOAA

DIAP 132200Z 10004KT 9999 TS FEW012 FEW020CB SCT045 26/23 Q1013 NOSIG


Station Type Date Time Source
DIAP Decoded METAR 2019/12/13 22:00 UTC NOAA

Abidjan, Cote d'Ivoire (DIAP) 05-15N 003-56W 8M
Dec 13, 2019 - 05:00 PM EST / 2019.12.13 2200 UTC
Wind: from the E (100 degrees) at 5 MPH (4 KT):0
Visibility: greater than 7 mile(s):0
Sky conditions: partly cloudy
Weather: thunder; Cumulonimbus clouds observed
Temperature: 78 F (26 C)
Dew Point: 73 F (23 C)
Relative Humidity: 83%
Pressure (altimeter): 29.91 in. Hg (1013 hPa)
ob: DIAP 132200Z 10004KT 9999 TS FEW012 FEW020CB SCT045 26/23 Q1013 NOSIG
cycle: 22

Station Type Date Time Source
DIAP TAF 2019/12/13 18:58 UTC NOAA

TAF COR DIAP 131700Z 1318/1418 26005KT 8000 BKN015 PROB30
TEMPO 1318/1324 4000 TSRA BKN013 FEW020CB PROB30
TEMPO 1403/1409 2000 BR FEW010
BECMG 1410/1412 TS SCT013 FEW020CB

Example: see airport list